sensor_id;sensor_type;location;lat;lon;timestamp;pressure;altitude;pressure_sealevel;temperature;humidity
74329;BME280;62749;51.982;5.916;2023-04-06T00:02:11;101633.59;;;6.53;50.74
74329;BME280;62749;51.982;5.916;2023-04-06T00:04:40;101631.91;;;6.49;50.10
74329;BME280;62749;51.982;5.916;2023-04-06T00:07:10;101624.13;;;6.39;50.43
74329;BME280;62749;51.982;5.916;2023-04-06T00:09:42;101609.28;;;6.37;50.28
74329;BME280;62749;51.982;5.916;2023-04-06T00:12:11;101615.31;;;6.47;50.47
74329;BME280;62749;51.982;5.916;2023-04-06T00:14:41;101623.16;;;6.50;51.60
74329;BME280;62749;51.982;5.916;2023-04-06T00:17:10;101610.94;;;6.45;51.78
74329;BME280;62749;51.982;5.916;2023-04-06T00:19:40;101613.50;;;6.52;50.93
74329;BME280;62749;51.982;5.916;2023-04-06T00:22:09;101610.06;;;6.47;51.01
74329;BME280;62749;51.982;5.916;2023-04-06T00:24:39;101609.28;;;6.37;51.49
74329;BME280;62749;51.982;5.916;2023-04-06T00:27:11;101608.47;;;6.33;52.21
74329;BME280;62749;51.982;5.916;2023-04-06T00:29:40;101602.38;;;6.28;51.56
74329;BME280;62749;51.982;5.916;2023-04-06T00:32:10;101596.28;;;6.27;52.21
74329;BME280;62749;51.982;5.916;2023-04-06T00:34:39;101591.88;;;6.29;52.94
74329;BME280;62749;51.982;5.916;2023-04-06T00:37:09;101588.41;;;6.27;52.61
74329;BME280;62749;51.982;5.916;2023-04-06T00:39:38;101587.53;;;6.28;53.25
74329;BME280;62749;51.982;5.916;2023-04-06T00:42:14;101587.56;;;6.24;51.96
74329;BME280;62749;51.982;5.916;2023-04-06T00:44:44;101571.84;;;6.21;52.51
74329;BME280;62749;51.982;5.916;2023-04-06T00:47:19;101581.47;;;6.20;52.45
74329;BME280;62749;51.982;5.916;2023-04-06T00:49:48;101584.16;;;6.16;52.86
74329;BME280;62749;51.982;5.916;2023-04-06T00:52:18;101582.44;;;6.13;52.92
74329;BME280;62749;51.982;5.916;2023-04-06T00:54:48;101585.06;;;6.13;53.47
74329;BME280;62749;51.982;5.916;2023-04-06T00:57:20;101578.97;;;6.08;52.99
74329;BME280;62749;51.982;5.916;2023-04-06T00:59:51;101575.53;;;6.04;53.10
74329;BME280;62749;51.982;5.916;2023-04-06T01:02:21;101572.94;;;6.01;54.10
74329;BME280;62749;51.982;5.916;2023-04-06T01:04:52;101572.03;;;6.02;54.36
74329;BME280;62749;51.982;5.916;2023-04-06T01:07:22;101567.69;;;6.01;54.24
74329;BME280;62749;51.982;5.916;2023-04-06T01:09:53;101567.69;;;6.03;54.41
74329;BME280;62749;51.982;5.916;2023-04-06T01:12:25;101563.34;;;6.00;53.92
74329;BME280;62749;51.982;5.916;2023-04-06T01:14:54;101562.47;;;5.99;54.06
74329;BME280;62749;51.982;5.916;2023-04-06T01:17:24;101566.91;;;5.91;54.44
74329;BME280;62749;51.982;5.916;2023-04-06T01:19:54;101547.66;;;5.91;54.28
74329;BME280;62749;51.982;5.916;2023-04-06T01:22:27;101557.28;;;5.90;54.73
74329;BME280;62749;51.982;5.916;2023-04-06T01:24:56;101539.00;;;5.82;54.97
74329;BME280;62749;51.982;5.916;2023-04-06T01:27:26;101558.19;;;5.86;54.01
74329;BME280;62749;51.982;5.916;2023-04-06T01:29:56;101543.34;;;5.87;54.64
74329;BME280;62749;51.982;5.916;2023-04-06T01:32:25;101550.41;;;5.80;55.16
74329;BME280;62749;51.982;5.916;2023-04-06T01:34:55;101547.75;;;5.81;54.60
74329;BME280;62749;51.982;5.916;2023-04-06T01:37:27;101546.94;;;5.78;55.23
74329;BME280;62749;51.982;5.916;2023-04-06T01:39:59;101543.47;;;5.74;56.08
74329;BME280;62749;51.982;5.916;2023-04-06T01:42:28;101537.38;;;5.72;55.00
74329;BME280;62749;51.982;5.916;2023-04-06T01:44:58;101529.50;;;5.72;55.30
74329;BME280;62749;51.982;5.916;2023-04-06T01:47:27;101535.59;;;5.74;56.10
74329;BME280;62749;51.982;5.916;2023-04-06T01:49:57;101541.72;;;5.73;55.82
74329;BME280;62749;51.982;5.916;2023-04-06T01:52:29;101536.47;;;5.75;55.63
74329;BME280;62749;51.982;5.916;2023-04-06T01:54:58;101532.13;;;5.71;56.66
74329;BME280;62749;51.982;5.916;2023-04-06T01:57:28;101516.44;;;5.66;56.26
74329;BME280;62749;51.982;5.916;2023-04-06T01:59:57;101516.50;;;5.58;56.75
74329;BME280;62749;51.982;5.916;2023-04-06T02:02:27;101520.81;;;5.64;55.94
74329;BME280;62749;51.982;5.916;2023-04-06T02:04:56;101515.56;;;5.67;56.44
74329;BME280;62749;51.982;5.916;2023-04-06T02:07:28;101517.31;;;5.65;56.13
74329;BME280;62749;51.982;5.916;2023-04-06T02:09:58;101512.06;;;5.68;56.58
74329;BME280;62749;51.982;5.916;2023-04-06T02:12:27;101502.47;;;5.64;56.61
74329;BME280;62749;51.982;5.916;2023-04-06T02:14:57;101510.47;;;5.53;57.28
74329;BME280;62749;51.982;5.916;2023-04-06T02:17:26;101508.66;;;5.55;57.03
74329;BME280;62749;51.982;5.916;2023-04-06T02:19:56;101513.09;;;5.51;57.10
74329;BME280;62749;51.982;5.916;2023-04-06T02:22:25;101493.94;;;5.43;57.11
74329;BME280;62749;51.982;5.916;2023-04-06T02:24:57;101499.06;;;5.56;57.09
74329;BME280;62749;51.982;5.916;2023-04-06T02:27:27;101497.34;;;5.55;57.03
74329;BME280;62749;51.982;5.916;2023-04-06T02:29:56;101499.94;;;5.56;56.76
74329;BME280;62749;51.982;5.916;2023-04-06T02:32:26;101496.56;;;5.46;56.55
74329;BME280;62749;51.982;5.916;2023-04-06T02:34:55;101494.75;;;5.50;57.15
74329;BME280;62749;51.982;5.916;2023-04-06T02:37:25;101480.75;;;5.54;57.78
74329;BME280;62749;51.982;5.916;2023-04-06T02:39:57;101487.72;;;5.53;57.13
74329;BME280;62749;51.982;5.916;2023-04-06T02:42:26;101484.28;;;5.50;55.96
74329;BME280;62749;51.982;5.916;2023-04-06T02:44:56;101492.09;;;5.55;56.66
74329;BME280;62749;51.982;5.916;2023-04-06T02:47:25;101486.00;;;5.54;56.35
74329;BME280;62749;51.982;5.916;2023-04-06T02:49:55;101488.63;;;5.52;56.79
74329;BME280;62749;51.982;5.916;2023-04-06T02:52:25;101479.94;;;5.47;56.55
74329;BME280;62749;51.982;5.916;2023-04-06T02:54:57;101476.47;;;5.45;56.74
74329;BME280;62749;51.982;5.916;2023-04-06T02:57:27;101484.28;;;5.50;57.72
74329;BME280;62749;51.982;5.916;2023-04-06T02:59:56;101481.66;;;5.50;56.53
74329;BME280;62749;51.982;5.916;2023-04-06T03:02:26;101472.06;;;5.46;56.83
74329;BME280;62749;51.982;5.916;2023-04-06T03:04:55;101470.38;;;5.43;56.74
74329;BME280;62749;51.982;5.916;2023-04-06T03:07:25;101470.41;;;5.37;57.29
74329;BME280;62749;51.982;5.916;2023-04-06T03:09:57;101479.16;;;5.36;56.94
74329;BME280;62749;51.982;5.916;2023-04-06T03:12:27;101461.72;;;5.35;56.63
74329;BME280;62749;51.982;5.916;2023-04-06T03:14:56;101477.47;;;5.32;56.65
74329;BME280;62749;51.982;5.916;2023-04-06T03:17:26;101466.97;;;5.32;56.72
74329;BME280;62749;51.982;5.916;2023-04-06T03:19:55;101468.78;;;5.28;56.35
74329;BME280;62749;51.982;5.916;2023-04-06T03:22:24;101468.75;;;5.27;56.41
74329;BME280;62749;51.982;5.916;2023-04-06T03:24:56;101458.41;;;5.14;56.12
74329;BME280;62749;51.982;5.916;2023-04-06T03:27:26;101461.84;;;5.19;56.51
74329;BME280;62749;51.982;5.916;2023-04-06T03:29:55;101460.03;;;5.25;57.29
74329;BME280;62749;51.982;5.916;2023-04-06T03:32:25;101457.41;;;5.25;57.10
74329;BME280;62749;51.982;5.916;2023-04-06T03:34:54;101449.53;;;5.29;57.46
74329;BME280;62749;51.982;5.916;2023-04-06T03:37:24;101442.53;;;5.30;57.04
74329;BME280;62749;51.982;5.916;2023-04-06T03:39:53;101452.97;;;5.34;57.31
74329;BME280;62749;51.982;5.916;2023-04-06T03:42:25;101454.75;;;5.34;56.36
74329;BME280;62749;51.982;5.916;2023-04-06T03:44:55;101445.16;;;5.30;57.43
74329;BME280;62749;51.982;5.916;2023-04-06T03:47:25;101454.00;;;5.18;57.07
74329;BME280;62749;51.982;5.916;2023-04-06T03:49:54;101447.88;;;5.20;58.19
74329;BME280;62749;51.982;5.916;2023-04-06T03:52:24;101449.72;;;5.07;57.48
74329;BME280;62749;51.982;5.916;2023-04-06T03:54:53;101446.28;;;5.01;57.69
74329;BME280;62749;51.982;5.916;2023-04-06T03:57:25;101449.75;;;5.06;58.78
74329;BME280;62749;51.982;5.916;2023-04-06T03:59:55;101443.72;;;4.95;58.29
74329;BME280;62749;51.982;5.916;2023-04-06T04:02:24;101453.28;;;4.99;58.85
74329;BME280;62749;51.982;5.916;2023-04-06T04:04:54;101441.97;;;4.97;58.63
74329;BME280;62749;51.982;5.916;2023-04-06T04:07:23;101443.66;;;5.04;59.31
74329;BME280;62749;51.982;5.916;2023-04-06T04:09:53;101444.59;;;4.95;58.65
74329;BME280;62749;51.982;5.916;2023-04-06T04:12:25;101437.59;;;4.97;59.10
74329;BME280;62749;51.982;5.916;2023-04-06T04:14:54;101435.97;;;4.82;59.35
74329;BME280;62749;51.982;5.916;2023-04-06T04:17:24;101443.78;;;4.90;59.64
74329;BME280;62749;51.982;5.916;2023-04-06T04:19:54;101454.28;;;4.84;59.45
74329;BME280;62749;51.982;5.916;2023-04-06T04:22:23;101445.59;;;4.80;59.12
74329;BME280;62749;51.982;5.916;2023-04-06T04:24:54;101453.38;;;4.88;59.41
74329;BME280;62749;51.982;5.916;2023-04-06T04:27:26;101454.31;;;4.82;59.26
74329;BME280;62749;51.982;5.916;2023-04-06T04:29:55;101456.91;;;4.81;59.63
74329;BME280;62749;51.982;5.916;2023-04-06T04:32:25;101456.03;;;4.85;59.72
74329;BME280;62749;51.982;5.916;2023-04-06T04:34:54;101460.31;;;4.92;59.23
74329;BME280;62749;51.982;5.916;2023-04-06T04:37:24;101454.25;;;4.87;59.47
74329;BME280;62749;51.982;5.916;2023-04-06T04:39:53;101455.06;;;4.95;59.26
74329;BME280;62749;51.982;5.916;2023-04-06T04:42:25;101449.00;;;4.88;59.83
74329;BME280;62749;51.982;5.916;2023-04-06T04:44:55;101456.81;;;4.96;59.07
74329;BME280;62749;51.982;5.916;2023-04-06T04:47:24;101451.59;;;4.91;59.09
74329;BME280;62749;51.982;5.916;2023-04-06T04:49:54;101452.50;;;4.89;58.74
74329;BME280;62749;51.982;5.916;2023-04-06T04:52:23;101444.63;;;4.94;58.47
74329;BME280;62749;51.982;5.916;2023-04-06T04:54:53;101441.97;;;4.97;59.22
74329;BME280;62749;51.982;5.916;2023-04-06T04:57:22;101437.59;;;4.94;58.88
74329;BME280;62749;51.982;5.916;2023-04-06T04:59:54;101440.19;;;4.99;59.13
74329;BME280;62749;51.982;5.916;2023-04-06T05:02:24;101445.44;;;4.97;59.33
74329;BME280;62749;51.982;5.916;2023-04-06T05:04:54;101436.66;;;5.03;59.35
74329;BME280;62749;51.982;5.916;2023-04-06T05:07:23;101441.94;;;5.01;59.34
74329;BME280;62749;51.982;5.916;2023-04-06T05:09:53;101430.56;;;5.02;58.91
74329;BME280;62749;51.982;5.916;2023-04-06T05:12:22;101435.72;;;5.12;59.04
74329;BME280;62749;51.982;5.916;2023-04-06T05:14:56;101435.75;;;5.09;59.27
74329;BME280;62749;51.982;5.916;2023-04-06T05:17:26;101432.25;;;5.06;59.24
74329;BME280;62749;51.982;5.916;2023-04-06T05:20:13;101442.66;;;5.17;59.18
74329;BME280;62749;51.982;5.916;2023-04-06T05:22:43;101429.59;;;5.11;59.45
74329;BME280;62749;51.982;5.916;2023-04-06T05:25:12;101424.38;;;5.11;59.13
74329;BME280;62749;51.982;5.916;2023-04-06T05:27:42;101429.50;;;5.23;58.74
74329;BME280;62749;51.982;5.916;2023-04-06T05:30:14;101426.88;;;5.25;58.80
74329;BME280;62749;51.982;5.916;2023-04-06T05:32:44;101427.69;;;5.29;59.16
74329;BME280;62749;51.982;5.916;2023-04-06T05:35:14;101431.13;;;5.35;58.72
74329;BME280;62749;51.982;5.916;2023-04-06T05:37:43;101433.69;;;5.42;58.67
74329;BME280;62749;51.982;5.916;2023-04-06T05:40:13;101424.06;;;5.44;58.28
74329;BME280;62749;51.982;5.916;2023-04-06T05:42:43;101422.25;;;5.49;58.24
74329;BME280;62749;51.982;5.916;2023-04-06T05:45:16;101427.50;;;5.49;58.14
74329;BME280;62749;51.982;5.916;2023-04-06T05:47:45;101424.06;;;5.45;58.51
74329;BME280;62749;51.982;5.916;2023-04-06T05:50:15;101420.53;;;5.45;57.83
74329;BME280;62749;51.982;5.916;2023-04-06T05:52:50;101405.88;;;5.27;58.19
74329;BME280;62749;51.982;5.916;2023-04-06T05:55:20;101408.41;;;5.36;58.15
74329;BME280;62749;51.982;5.916;2023-04-06T05:57:49;101424.84;;;5.50;58.73
74329;BME280;62749;51.982;5.916;2023-04-06T06:00:22;101419.56;;;5.57;58.34
74329;BME280;62749;51.982;5.916;2023-04-06T06:02:52;101426.47;;;5.65;57.31
74329;BME280;62749;51.982;5.916;2023-04-06T06:05:22;101415.16;;;5.59;57.41
74329;BME280;62749;51.982;5.916;2023-04-06T06:07:51;101423.84;;;5.64;57.89
74329;BME280;62749;51.982;5.916;2023-04-06T06:10:21;101417.56;;;5.77;57.32
74329;BME280;62749;51.982;5.916;2023-04-06T06:12:50;101420.31;;;5.65;57.52
74329;BME280;62749;51.982;5.916;2023-04-06T06:15:23;101423.69;;;5.78;58.38
74329;BME280;62749;51.982;5.916;2023-04-06T06:17:52;101411.28;;;5.91;57.74
74329;BME280;62749;51.982;5.916;2023-04-06T06:20:21;101408.44;;;6.11;56.77
74329;BME280;62749;51.982;5.916;2023-04-06T06:22:51;101397.97;;;6.09;56.57
74329;BME280;62749;51.982;5.916;2023-04-06T06:25:21;101408.44;;;6.12;56.13
74329;BME280;62749;51.982;5.916;2023-04-06T06:27:50;101403.03;;;6.22;56.05
74329;BME280;62749;51.982;5.916;2023-04-06T06:30:22;101409.19;;;6.21;55.36
74329;BME280;62749;51.982;5.916;2023-04-06T06:32:52;101411.53;;;6.39;54.33
74329;BME280;62749;51.982;5.916;2023-04-06T06:35:23;101416.66;;;6.47;55.06
74329;BME280;62749;51.982;5.916;2023-04-06T06:37:52;101414.81;;;6.55;54.00
74329;BME280;62749;51.982;5.916;2023-04-06T06:40:21;101420.03;;;6.57;54.04
74329;BME280;62749;51.982;5.916;2023-04-06T06:42:53;101410.56;;;6.47;54.85
74329;BME280;62749;51.982;5.916;2023-04-06T06:45:25;101419.19;;;6.55;54.59
74329;BME280;62749;51.982;5.916;2023-04-06T06:47:55;101418.19;;;6.64;55.08
74329;BME280;62749;51.982;5.916;2023-04-06T06:50:25;101419.63;;;6.82;54.55
74329;BME280;62749;51.982;5.916;2023-04-06T06:52:54;101411.94;;;6.71;54.45
74329;BME280;62749;51.982;5.916;2023-04-06T06:55:24;101412.84;;;6.70;55.30
74329;BME280;62749;51.982;5.916;2023-04-06T06:57:54;101411.78;;;6.80;54.82
74329;BME280;62749;51.982;5.916;2023-04-06T07:00:26;101404.88;;;6.74;54.68
74329;BME280;62749;51.982;5.916;2023-04-06T07:02:56;101408.97;;;6.93;54.36
74329;BME280;62749;51.982;5.916;2023-04-06T07:05:25;101400.19;;;6.92;55.02
74329;BME280;62749;51.982;5.916;2023-04-06T07:07:55;101400.78;;;7.10;54.77
74329;BME280;62749;51.982;5.916;2023-04-06T07:10:25;101402.28;;;7.23;54.10
74329;BME280;62749;51.982;5.916;2023-04-06T07:12:55;101394.22;;;7.34;54.11
74329;BME280;62749;51.982;5.916;2023-04-06T07:15:27;101394.78;;;7.50;53.39
74329;BME280;62749;51.982;5.916;2023-04-06T07:18:07;101385.91;;;7.56;54.04
74329;BME280;62749;51.982;5.916;2023-04-06T07:20:37;101391.13;;;7.57;52.77
74329;BME280;62749;51.982;5.916;2023-04-06T07:23:06;101390.22;;;7.60;53.35
74329;BME280;62749;51.982;5.916;2023-04-06T07:25:36;101390.53;;;7.43;53.70
74329;BME280;62749;51.982;5.916;2023-04-06T07:28:05;101389.44;;;7.55;53.27
74329;BME280;62749;51.982;5.916;2023-04-06T07:30:38;101383.88;;;7.70;53.16
74329;BME280;62749;51.982;5.916;2023-04-06T07:33:07;101384.63;;;7.77;52.70
74329;BME280;62749;51.982;5.916;2023-04-06T07:35:37;101386.16;;;7.87;52.94
74329;BME280;62749;51.982;5.916;2023-04-06T07:38:07;101396.28;;;8.06;53.92
74329;BME280;62749;51.982;5.916;2023-04-06T07:40:36;101392.72;;;8.08;52.07
74329;BME280;62749;51.982;5.916;2023-04-06T07:43:06;101390.03;;;8.10;50.64
74329;BME280;62749;51.982;5.916;2023-04-06T07:45:38;101384.84;;;8.07;51.75
74329;BME280;62749;51.982;5.916;2023-04-06T07:48:08;101392.78;;;8.05;52.14
74329;BME280;62749;51.982;5.916;2023-04-06T07:50:37;101402.25;;;8.14;52.83
74329;BME280;62749;51.982;5.916;2023-04-06T07:53:08;101394.59;;;8.02;52.35
74329;BME280;62749;51.982;5.916;2023-04-06T07:55:37;101387.47;;;8.07;52.31
74329;BME280;62749;51.982;5.916;2023-04-06T07:58:07;101385.88;;;7.99;51.89
74329;BME280;62749;51.982;5.916;2023-04-06T08:00:39;101383.81;;;8.14;53.09
74329;BME280;62749;51.982;5.916;2023-04-06T08:03:08;101386.94;;;8.30;52.75
74329;BME280;62749;51.982;5.916;2023-04-06T08:05:38;101389.56;;;8.32;52.17
74329;BME280;62749;51.982;5.916;2023-04-06T08:08:07;101387.72;;;8.35;52.14
74329;BME280;62749;51.982;5.916;2023-04-06T08:10:37;101379.72;;;8.40;51.88
74329;BME280;62749;51.982;5.916;2023-04-06T08:13:06;101379.88;;;8.32;52.33
74329;BME280;62749;51.982;5.916;2023-04-06T08:15:39;101380.72;;;8.34;52.64
74329;BME280;62749;51.982;5.916;2023-04-06T08:18:09;101373.94;;;8.24;52.50
74329;BME280;62749;51.982;5.916;2023-04-06T08:20:39;101375.47;;;8.34;52.58
74329;BME280;62749;51.982;5.916;2023-04-06T08:23:08;101369.94;;;8.45;52.54
74329;BME280;62749;51.982;5.916;2023-04-06T08:25:38;101374.97;;;8.57;52.37
74329;BME280;62749;51.982;5.916;2023-04-06T08:28:07;101367.78;;;8.64;52.46
74329;BME280;62749;51.982;5.916;2023-04-06T08:30:42;101365.94;;;8.66;51.87
74329;BME280;62749;51.982;5.916;2023-04-06T08:33:12;101361.16;;;8.82;52.09
74329;BME280;62749;51.982;5.916;2023-04-06T08:35:41;101368.06;;;8.88;51.98
74329;BME280;62749;51.982;5.916;2023-04-06T08:38:11;101366.34;;;8.85;51.16
74329;BME280;62749;51.982;5.916;2023-04-06T08:40:41;101370.38;;;9.00;50.02
74329;BME280;62749;51.982;5.916;2023-04-06T08:43:14;101372.88;;;9.05;50.51
74329;BME280;62749;51.982;5.916;2023-04-06T08:45:46;101370.88;;;9.15;50.11
74329;BME280;62749;51.982;5.916;2023-04-06T08:48:17;101369.03;;;9.17;48.96
74329;BME280;62749;51.982;5.916;2023-04-06T08:50:47;101362.63;;;9.27;48.12
74329;BME280;62749;51.982;5.916;2023-04-06T08:53:17;101370.41;;;9.32;47.81
74329;BME280;62749;51.982;5.916;2023-04-06T08:55:47;101366.88;;;9.33;48.03
74329;BME280;62749;51.982;5.916;2023-04-06T08:58:18;101371.31;;;9.31;47.89
74329;BME280;62749;51.982;5.916;2023-04-06T09:00:55;101359.03;;;9.30;48.03
74329;BME280;62749;51.982;5.916;2023-04-06T09:03:27;101357.94;;;9.37;48.59
74329;BME280;62749;51.982;5.916;2023-04-06T09:05:59;101369.38;;;9.38;49.44
74329;BME280;62749;51.982;5.916;2023-04-06T09:08:29;101371.13;;;9.37;49.13
74329;BME280;62749;51.982;5.916;2023-04-06T09:10:58;101375.25;;;9.47;49.52
74329;BME280;62749;51.982;5.916;2023-04-06T09:13:28;101365.69;;;9.43;48.62
74329;BME280;62749;51.982;5.916;2023-04-06T09:16:02;101356.25;;;9.34;48.54
74329;BME280;62749;51.982;5.916;2023-04-06T09:18:33;101369.56;;;9.61;49.27
74329;BME280;62749;51.982;5.916;2023-04-06T09:21:05;101365.00;;;9.68;48.98
74329;BME280;62749;51.982;5.916;2023-04-06T09:23:36;101363.59;;;9.86;49.05
74329;BME280;62749;51.982;5.916;2023-04-06T09:26:08;101363.59;;;10.14;48.93
74329;BME280;62749;51.982;5.916;2023-04-06T09:28:44;101352.56;;;10.02;48.49
74329;BME280;62749;51.982;5.916;2023-04-06T09:31:22;101363.88;;;10.05;48.76
74329;BME280;62749;51.982;5.916;2023-04-06T09:33:52;101358.31;;;10.14;48.59
74329;BME280;62749;51.982;5.916;2023-04-06T09:36:30;101358.06;;;10.24;48.12
74329;BME280;62749;51.982;5.916;2023-04-06T09:39:01;101356.91;;;10.33;48.65
74329;BME280;62749;51.982;5.916;2023-04-06T09:41:33;101352.25;;;10.41;47.83
74329;BME280;62749;51.982;5.916;2023-04-06T09:44:04;101341.91;;;10.33;49.40
74329;BME280;62749;51.982;5.916;2023-04-06T09:46:38;101348.41;;;10.51;48.38
74329;BME280;62749;51.982;5.916;2023-04-06T09:49:09;101357.88;;;10.58;48.29
74329;BME280;62749;51.982;5.916;2023-04-06T09:51:41;101354.84;;;10.69;48.67
74329;BME280;62749;51.982;5.916;2023-04-06T09:54:18;101352.41;;;10.90;48.46
74329;BME280;62749;51.982;5.916;2023-04-06T09:56:56;101355.34;;;10.81;48.74
74329;BME280;62749;51.982;5.916;2023-04-06T09:59:38;101354.25;;;10.86;47.11
74329;BME280;62749;51.982;5.916;2023-04-06T10:02:25;101351.53;;;10.89;48.32
74329;BME280;62749;51.982;5.916;2023-04-06T10:05:05;101349.09;;;11.09;47.01
74329;BME280;62749;51.982;5.916;2023-04-06T10:07:39;101353.03;;;11.22;47.94
74329;BME280;62749;51.982;5.916;2023-04-06T10:10:10;101346.34;;;11.12;46.94
74329;BME280;62749;51.982;5.916;2023-04-06T10:12:41;101352.75;;;11.04;47.92
74329;BME280;62749;51.982;5.916;2023-04-06T10:15:12;101357.69;;;11.15;46.27
74329;BME280;62749;51.982;5.916;2023-04-06T10:17:44;101360.22;;;11.18;46.54
74329;BME280;62749;51.982;5.916;2023-04-06T10:20:18;101357.31;;;11.26;46.89
74329;BME280;62749;51.982;5.916;2023-04-06T10:22:57;101351.84;;;11.05;47.34
74329;BME280;62749;51.982;5.916;2023-04-06T10:25:29;101359.84;;;11.29;46.85
74329;BME280;62749;51.982;5.916;2023-04-06T10:27:59;101359.13;;;11.24;47.66
74329;BME280;62749;51.982;5.916;2023-04-06T10:30:29;101353.81;;;11.00;47.74
74329;BME280;62749;51.982;5.916;2023-04-06T10:33:12;101359.19;;;10.97;47.65
74329;BME280;62749;51.982;5.916;2023-04-06T10:35:42;101367.03;;;10.73;48.34
74329;BME280;62749;51.982;5.916;2023-04-06T10:38:12;101364.81;;;10.61;49.07
74329;BME280;62749;51.982;5.916;2023-04-06T10:40:46;101355.72;;;10.70;49.61
74329;BME280;62749;51.982;5.916;2023-04-06T10:43:20;101370.91;;;10.90;48.52
74329;BME280;62749;51.982;5.916;2023-04-06T10:45:55;101359.72;;;10.82;48.25
74329;BME280;62749;51.982;5.916;2023-04-06T10:48:37;101349.97;;;10.57;48.34
74329;BME280;62749;51.982;5.916;2023-04-06T10:51:11;101362.34;;;10.55;49.36
74329;BME280;62749;51.982;5.916;2023-04-06T10:53:43;101356.50;;;10.72;49.61
74329;BME280;62749;51.982;5.916;2023-04-06T10:56:14;101355.03;;;10.90;49.35
74329;BME280;62749;51.982;5.916;2023-04-06T10:58:45;101357.13;;;11.05;48.93
74329;BME280;62749;51.982;5.916;2023-04-06T11:01:16;101360.75;;;11.28;49.30
74329;BME280;62749;51.982;5.916;2023-04-06T11:03:50;101350.53;;;11.43;49.79
74329;BME280;62749;51.982;5.916;2023-04-06T11:06:21;101349.00;;;11.61;48.39
74329;BME280;62749;51.982;5.916;2023-04-06T11:08:52;101349.47;;;11.48;49.43
74329;BME280;62749;51.982;5.916;2023-04-06T11:11:24;101344.66;;;11.58;48.96
74329;BME280;62749;51.982;5.916;2023-04-06T11:13:55;101355.34;;;11.31;49.87
74329;BME280;62749;51.982;5.916;2023-04-06T11:16:27;101352.50;;;11.38;50.52
74329;BME280;62749;51.982;5.916;2023-04-06T11:19:01;101354.38;;;11.34;50.25
74329;BME280;62749;51.982;5.916;2023-04-06T11:21:43;101356.97;;;11.35;51.14
74329;BME280;62749;51.982;5.916;2023-04-06T11:24:15;101351.47;;;11.42;50.34
74329;BME280;62749;51.982;5.916;2023-04-06T11:26:48;101340.72;;;11.46;51.21
74329;BME280;62749;51.982;5.916;2023-04-06T11:29:19;101355.81;;;11.43;50.85
74329;BME280;62749;51.982;5.916;2023-04-06T11:31:50;101354.50;;;11.55;50.35
74329;BME280;62749;51.982;5.916;2023-04-06T11:34:24;101346.84;;;11.47;51.38
74329;BME280;62749;51.982;5.916;2023-04-06T11:36:55;101342.47;;;11.46;51.75
74329;BME280;62749;51.982;5.916;2023-04-06T11:39:26;101345.81;;;11.51;51.00
74329;BME280;62749;51.982;5.916;2023-04-06T11:41:58;101342.53;;;11.20;52.94
74329;BME280;62749;51.982;5.916;2023-04-06T11:44:31;101342.19;;;11.04;53.69
74329;BME280;62749;51.982;5.916;2023-04-06T11:47:02;101337.41;;;11.16;54.07
74329;BME280;62749;51.982;5.916;2023-04-06T11:49:37;101336.75;;;11.09;54.85
74329;BME280;62749;51.982;5.916;2023-04-06T11:52:15;101353.84;;;10.99;57.77
74329;BME280;62749;51.982;5.916;2023-04-06T11:54:46;101352.34;;;10.92;57.32
74329;BME280;62749;51.982;5.916;2023-04-06T11:57:17;101354.25;;;10.61;60.02
74329;BME280;62749;51.982;5.916;2023-04-06T11:59:47;101346.81;;;10.46;60.68
74329;BME280;62749;51.982;5.916;2023-04-06T12:02:17;101340.22;;;10.59;62.90
74329;BME280;62749;51.982;5.916;2023-04-06T12:04:49;101342.25;;;10.51;62.41
74329;BME280;62749;51.982;5.916;2023-04-06T12:07:18;101349.47;;;10.46;64.04
74329;BME280;62749;51.982;5.916;2023-04-06T12:09:48;101345.75;;;10.23;65.23
74329;BME280;62749;51.982;5.916;2023-04-06T12:12:17;101343.28;;;9.88;67.21
74329;BME280;62749;51.982;5.916;2023-04-06T12:14:47;101353.41;;;10.02;66.46
74329;BME280;62749;51.982;5.916;2023-04-06T12:17:17;101346.09;;;9.82;66.58
74329;BME280;62749;51.982;5.916;2023-04-06T12:19:49;101346.09;;;9.82;68.34
74329;BME280;62749;51.982;5.916;2023-04-06T12:22:19;101357.34;;;9.89;67.72
74329;BME280;62749;51.982;5.916;2023-04-06T12:24:49;101349.16;;;9.68;69.33
74329;BME280;62749;51.982;5.916;2023-04-06T12:27:18;101352.97;;;9.58;69.69
74329;BME280;62749;51.982;5.916;2023-04-06T12:29:48;101349.59;;;9.52;68.83
74329;BME280;62749;51.982;5.916;2023-04-06T12:32:18;101347.78;;;9.55;69.47
74329;BME280;62749;51.982;5.916;2023-04-06T12:34:51;101348.13;;;9.42;69.92
74329;BME280;62749;51.982;5.916;2023-04-06T12:37:21;101357.16;;;9.35;71.57
74329;BME280;62749;51.982;5.916;2023-04-06T12:39:52;101349.34;;;9.30;71.87
74329;BME280;62749;51.982;5.916;2023-04-06T12:42:21;101345.72;;;9.34;71.03
74329;BME280;62749;51.982;5.916;2023-04-06T12:44:51;101341.22;;;9.38;72.00
74329;BME280;62749;51.982;5.916;2023-04-06T12:47:20;101338.56;;;9.40;71.97
74329;BME280;62749;51.982;5.916;2023-04-06T12:49:52;101325.53;;;9.33;72.86
74329;BME280;62749;51.982;5.916;2023-04-06T12:52:23;101338.00;;;9.28;70.43
74329;BME280;62749;51.982;5.916;2023-04-06T12:54:52;101339.44;;;9.07;73.75
74329;BME280;62749;51.982;5.916;2023-04-06T12:57:29;101334.03;;;9.12;73.46
74329;BME280;62749;51.982;5.916;2023-04-06T12:59:58;101333.84;;;9.18;75.63
74329;BME280;62749;51.982;5.916;2023-04-06T13:02:29;101331.59;;;9.04;74.29
74329;BME280;62749;51.982;5.916;2023-04-06T13:05:02;101330.66;;;9.06;73.84
74329;BME280;62749;51.982;5.916;2023-04-06T13:07:31;101336.09;;;9.00;76.10
74329;BME280;62749;51.982;5.916;2023-04-06T13:10:01;101333.50;;;8.99;76.57
74329;BME280;62749;51.982;5.916;2023-04-06T13:12:30;101336.44;;;8.88;76.07
74329;BME280;62749;51.982;5.916;2023-04-06T13:15:01;101322.22;;;8.94;75.65
74329;BME280;62749;51.982;5.916;2023-04-06T13:17:31;101322.81;;;9.05;78.09